createdAt,value
2022-10-28T00:02:21.231Z,99.90
2022-10-28T00:07:23.944Z,99.90
2022-10-28T00:12:26.620Z,99.90
2022-10-28T00:17:29.354Z,99.90
2022-10-28T00:22:31.969Z,99.90
2022-10-28T00:27:34.828Z,99.90
2022-10-28T00:32:37.510Z,99.90
2022-10-28T00:37:40.147Z,99.90
2022-10-28T00:42:42.848Z,99.90
2022-10-28T00:47:56.004Z,99.90
2022-10-28T00:53:03.448Z,99.90
2022-10-28T00:58:08.479Z,99.90
2022-10-28T01:03:11.320Z,99.90
2022-10-28T01:08:14.520Z,99.90
2022-10-28T01:13:22.715Z,99.90
2022-10-28T01:18:40.569Z,99.90
2022-10-28T01:23:52.238Z,99.90
2022-10-28T01:29:22.593Z,99.90
2022-10-28T01:34:31.661Z,99.90
2022-10-28T01:39:38.931Z,99.90
2022-10-28T01:44:51.819Z,99.90
2022-10-28T01:49:56.805Z,99.90
2022-10-28T01:55:10.910Z,99.90
2022-10-28T02:00:14.190Z,99.90
2022-10-28T02:05:53.448Z,99.90
2022-10-28T02:11:03.166Z,99.90
2022-10-28T02:16:20.762Z,99.90
2022-10-28T02:21:42.638Z,99.90
2022-10-28T02:26:55.653Z,99.90
2022-10-28T02:32:12.198Z,99.90
2022-10-28T02:37:33.989Z,99.90
2022-10-28T02:42:50.701Z,99.90
2022-10-28T02:48:02.831Z,99.90
2022-10-28T02:53:15.749Z,99.90
2022-10-28T02:58:19.357Z,99.90
2022-10-28T03:03:22.191Z,99.90
2022-10-28T03:08:25.638Z,99.90
2022-10-28T03:13:28.299Z,99.90
2022-10-28T03:18:31.008Z,99.90
2022-10-28T03:23:33.669Z,99.90
2022-10-28T03:28:36.441Z,99.90
2022-10-28T03:33:39.183Z,99.90
2022-10-28T03:38:41.869Z,99.90
2022-10-28T03:43:44.818Z,99.90
2022-10-28T03:48:47.568Z,99.90
2022-10-28T03:53:50.258Z,99.90
2022-10-28T04:04:00.580Z,99.90
2022-10-28T04:09:03.519Z,99.90
2022-10-28T04:14:06.301Z,99.90
2022-10-28T04:19:09.120Z,99.90
2022-10-28T04:24:11.796Z,99.90
2022-10-28T04:29:14.390Z,99.90
2022-10-28T04:34:17.017Z,99.90
2022-10-28T04:39:19.660Z,99.90
2022-10-28T04:44:22.368Z,99.90
2022-10-28T04:49:25.009Z,99.90
2022-10-28T04:54:28.122Z,99.90
2022-10-28T04:59:30.868Z,99.90
2022-10-28T05:04:33.488Z,99.90
2022-10-28T05:09:36.324Z,99.90
2022-10-28T05:14:39.002Z,99.90
2022-10-28T05:19:42.498Z,99.90
2022-10-28T05:24:45.359Z,99.90
2022-10-28T05:29:48.060Z,99.90
2022-10-28T05:34:50.852Z,99.90
2022-10-28T05:39:53.850Z,99.90
2022-10-28T05:44:56.592Z,99.90
2022-10-28T05:49:59.601Z,99.90
2022-10-28T05:55:02.667Z,99.90
2022-10-28T06:00:06.898Z,99.90
2022-10-28T06:05:15.760Z,99.90
2022-10-28T06:10:18.749Z,99.90
2022-10-28T06:15:20.241Z,99.90
2022-10-28T06:20:23.011Z,99.90
2022-10-28T06:25:26.527Z,99.90
2022-10-28T06:30:29.238Z,99.90
2022-10-28T06:39:38.599Z,99.90
2022-10-28T06:44:41.529Z,99.90
2022-10-28T06:49:45.839Z,99.90
2022-10-28T06:54:48.594Z,99.90
2022-10-28T06:59:51.276Z,99.90
2022-10-28T07:04:54.122Z,99.90
2022-10-28T07:09:56.865Z,99.90
2022-10-28T07:14:59.653Z,99.90
2022-10-28T07:20:02.350Z,99.90
2022-10-28T07:25:05.398Z,99.90
2022-10-28T07:30:08.891Z,99.90
2022-10-28T07:35:11.637Z,99.90
2022-10-28T07:40:15.027Z,99.90
2022-10-28T07:45:18.884Z,99.90
2022-10-28T07:50:21.718Z,99.90
2022-10-28T07:55:24.509Z,99.90
2022-10-28T08:00:27.275Z,99.90
2022-10-28T08:05:29.981Z,99.90
2022-10-28T08:10:32.863Z,99.90
2022-10-28T08:15:35.943Z,99.90
2022-10-28T08:20:38.716Z,99.90
2022-10-28T08:25:52.280Z,99.90
2022-10-28T08:31:08.390Z,99.90
2022-10-28T08:36:14.033Z,99.90
2022-10-28T08:41:30.257Z,99.90
2022-10-28T08:46:54.804Z,99.90
2022-10-28T08:52:06.259Z,98.50
2022-10-28T08:57:18.116Z,72.90
2022-10-28T09:02:28.817Z,70.40
2022-10-28T09:07:34.127Z,64.60
2022-10-28T09:13:03.507Z,57.60
2022-10-28T09:18:26.543Z,59.70
2022-10-28T09:23:34.073Z,54.30
2022-10-28T09:29:09.990Z,58.00
2022-10-28T09:34:47.415Z,55.60
2022-10-28T09:40:01.735Z,48.00
2022-10-28T09:45:14.199Z,45.30
2022-10-28T09:50:21.207Z,47.50
2022-10-28T09:55:24.580Z,46.60
2022-10-28T10:00:27.368Z,47.90
2022-10-28T10:05:33.430Z,43.60
2022-10-28T10:11:19.642Z,37.40
2022-10-28T10:16:44.677Z,40.10
2022-10-28T10:21:52.977Z,40.40
2022-10-28T10:26:56.954Z,45.00
2022-10-28T10:32:27.416Z,45.20
2022-10-28T10:37:33.370Z,43.20
2022-10-28T10:42:42.710Z,46.30
2022-10-28T10:48:20.791Z,47.20
2022-10-28T10:53:28.018Z,44.40
2022-10-28T10:58:38.009Z,47.30
2022-10-28T11:04:11.406Z,46.60
2022-10-28T11:09:37.570Z,44.80
2022-10-28T11:14:53.476Z,41.80
2022-10-28T11:19:59.220Z,41.80
2022-10-28T11:25:20.629Z,46.20
2022-10-28T11:30:36.009Z,46.20
2022-10-28T11:35:38.917Z,50.70
2022-10-28T11:40:53.887Z,55.70
2022-10-28T11:46:04.043Z,55.60
2022-10-28T11:51:31.388Z,50.80
2022-10-28T11:56:46.097Z,48.80
2022-10-28T12:02:19.685Z,45.50
2022-10-28T12:07:57.789Z,47.50
2022-10-28T12:13:24.148Z,48.20
2022-10-28T12:18:34.326Z,45.40
2022-10-28T12:23:39.494Z,48.60
2022-10-28T12:28:57.201Z,47.00
2022-10-28T12:34:04.922Z,50.40
2022-10-28T12:39:23.345Z,52.90
2022-10-28T12:44:28.585Z,52.20
2022-10-28T12:49:37.427Z,54.70
2022-10-28T12:54:53.906Z,57.90
2022-10-28T13:00:20.464Z,54.00
2022-10-28T13:05:31.286Z,52.20
2022-10-28T13:11:06.966Z,52.50
2022-10-28T13:16:15.355Z,52.00
2022-10-28T13:21:33.593Z,54.00
2022-10-28T13:26:41.362Z,54.30
2022-10-28T13:31:48.209Z,53.60
2022-10-28T13:37:00.497Z,56.00
2022-10-28T13:42:26.345Z,55.40
2022-10-28T13:47:36.868Z,59.40
2022-10-28T13:53:18.332Z,66.20
2022-10-28T13:58:23.976Z,72.50
2022-10-28T14:03:28.225Z,83.10
2022-10-28T14:08:42.113Z,92.30
2022-10-28T14:13:56.971Z,97.30
2022-10-28T14:19:04.781Z,99.90
2022-10-28T14:24:09.195Z,99.90
2022-10-28T14:29:30.143Z,99.90
2022-10-28T14:34:38.041Z,99.90
2022-10-28T14:40:15.785Z,99.90
2022-10-28T14:45:21.578Z,99.90
2022-10-28T14:50:34.452Z,99.90
2022-10-28T14:55:37.646Z,99.90
2022-10-28T15:00:48.270Z,99.90
2022-10-28T15:05:51.002Z,99.90
2022-10-28T15:10:53.962Z,99.90
2022-10-28T15:15:59.402Z,99.90
2022-10-28T15:21:15.561Z,99.90
2022-10-28T15:26:19.200Z,99.90
2022-10-28T15:31:21.960Z,99.90
2022-10-28T15:36:26.769Z,99.90
2022-10-28T15:41:29.531Z,99.90
2022-10-28T15:46:34.238Z,99.90
2022-10-28T15:51:36.984Z,99.90
2022-10-28T15:57:00.050Z,99.90
2022-10-28T16:02:03.085Z,99.90
2022-10-28T16:07:08.711Z,99.90
2022-10-28T16:12:17.777Z,99.90
2022-10-28T16:17:33.708Z,99.90
2022-10-28T16:22:37.777Z,99.90
2022-10-28T16:27:40.807Z,99.90
2022-10-28T16:32:49.117Z,99.90
2022-10-28T16:37:55.529Z,99.90
2022-10-28T16:42:58.929Z,99.90
2022-10-28T16:48:01.698Z,99.90
2022-10-28T16:53:04.579Z,99.90
2022-10-28T16:58:08.047Z,99.90
2022-10-28T17:03:15.670Z,99.90
2022-10-28T17:08:31.063Z,99.90
2022-10-28T17:13:41.438Z,99.90
2022-10-28T17:18:44.807Z,99.90
2022-10-28T17:23:47.660Z,99.90
2022-10-28T17:28:53.664Z,99.90
2022-10-28T17:33:56.650Z,99.90
2022-10-28T17:38:59.562Z,99.90
2022-10-28T17:44:02.801Z,99.90
2022-10-28T17:49:08.855Z,99.90
2022-10-28T17:54:12.107Z,99.90
2022-10-28T17:59:15.342Z,99.90
2022-10-28T18:04:20.128Z,99.90
2022-10-28T18:09:23.657Z,99.90
2022-10-28T18:14:26.448Z,99.90
2022-10-28T18:19:29.466Z,99.90
2022-10-28T18:24:32.382Z,99.90
2022-10-28T18:29:35.098Z,99.90
2022-10-28T18:34:37.947Z,99.90
2022-10-28T18:39:40.789Z,99.90
2022-10-28T18:44:43.599Z,99.90
2022-10-28T18:49:46.256Z,99.90
2022-10-28T18:54:48.968Z,99.90
2022-10-28T19:00:17.544Z,99.90
2022-10-28T19:05:14.555Z,99.90
2022-10-28T19:10:17.408Z,99.90
2022-10-28T19:15:20.238Z,99.90
2022-10-28T19:20:24.168Z,99.90
2022-10-28T19:25:27.070Z,99.90
2022-10-28T19:30:30.222Z,99.90
2022-10-28T19:35:33.995Z,99.90
2022-10-28T19:40:36.764Z,99.90
2022-10-28T19:45:39.570Z,99.90
2022-10-28T19:50:49.513Z,99.90
2022-10-28T19:55:57.433Z,99.90
2022-10-28T20:01:05.722Z,99.90
2022-10-28T20:06:14.111Z,99.90
2022-10-28T20:11:28.430Z,99.90
2022-10-28T20:16:33.428Z,99.90
2022-10-28T20:21:37.860Z,99.90
2022-10-28T20:26:40.943Z,99.90
2022-10-28T20:31:44.048Z,99.90
2022-10-28T20:36:46.912Z,99.90
2022-10-28T20:41:51.524Z,99.90
2022-10-28T20:46:54.270Z,99.90
2022-10-28T20:51:57.058Z,99.90
2022-10-28T20:56:59.821Z,99.90
2022-10-28T21:02:02.715Z,99.90
2022-10-28T21:07:05.648Z,99.90
2022-10-28T21:12:08.478Z,99.90
2022-10-28T21:17:11.202Z,99.90
2022-10-28T21:22:13.905Z,99.90
2022-10-28T21:27:16.674Z,99.90
2022-10-28T21:32:19.422Z,99.90
2022-10-28T21:37:22.108Z,99.90
2022-10-28T21:42:25.261Z,99.90
2022-10-28T21:47:28.601Z,99.90
2022-10-28T21:52:31.764Z,99.90
2022-10-28T21:57:34.440Z,99.90
2022-10-28T22:02:37.366Z,99.90
2022-10-28T22:07:40.142Z,99.90
2022-10-28T22:12:42.911Z,99.90
2022-10-28T22:17:45.660Z,99.90
2022-10-28T22:22:48.381Z,99.90
2022-10-28T22:27:51.169Z,99.90
2022-10-28T22:32:54.186Z,99.90
2022-10-28T22:37:57.197Z,99.90
2022-10-28T22:43:00.121Z,99.90
2022-10-28T22:48:02.890Z,99.90
2022-10-28T22:53:05.688Z,99.90
2022-10-28T22:58:08.421Z,99.90
2022-10-28T23:03:11.690Z,99.90
2022-10-28T23:08:17.485Z,99.90
2022-10-28T23:13:20.132Z,99.90
2022-10-28T23:18:28.335Z,99.90
2022-10-28T23:23:31.144Z,99.90
2022-10-28T23:28:34.024Z,99.90
2022-10-28T23:33:36.758Z,99.90
2022-10-28T23:38:39.488Z,99.90
2022-10-28T23:43:43.112Z,99.90
2022-10-28T23:48:45.971Z,99.90
2022-10-28T23:53:48.690Z,99.90
2022-10-28T23:58:51.369Z,99.90
